DESEL EDJA-EDJA
Flight info
| Callsign | DESEL |
|---|---|
| Flight time | 0h 16m |
| Altitude | |
| Route | DCT |
| Aircraft | 330LT |
Departure
| Time | 2026-05-07 16:09 |
|---|---|
| Airport | Memmingen Allgau Airport (EDJA) |
Arrival
| Time | 2026-05-07 16:25 |
|---|---|
| Airport | Memmingen Allgau Airport (EDJA) |
| Time | Latitude | Longitude | Altitude | Speed | Heading |
|---|---|---|---|---|---|
| 2026-05-07 16:08 | 47.98806 | 10.23799 | 2071 ft | 8 kts | 333° |
| 2026-05-07 16:08 | 47.98810 | 10.23773 | 2072 ft | 0 kts | 231° |
| 2026-05-07 16:09 | 47.98706 | 10.23498 | 2075 ft | 89 kts | 228° |
| 2026-05-07 16:09 | 47.98290 | 10.22471 | 2599 ft | 134 kts | 244° |
| 2026-05-07 16:09 | 47.97433 | 10.21931 | 2934 ft | 148 kts | 169° |
| 2026-05-07 16:09 | 47.96757 | 10.22951 | 3113 ft | 134 kts | 101° |
| 2026-05-07 16:10 | 47.96777 | 10.23771 | 3028 ft | 112 kts | 69° |
| 2026-05-07 16:10 | 47.97064 | 10.24894 | 2968 ft | 127 kts | 64° |
| 2026-05-07 16:10 | 47.97500 | 10.26155 | 3016 ft | 144 kts | 58° |
| 2026-05-07 16:10 | 47.98039 | 10.27517 | 3008 ft | 159 kts | 55° |
| 2026-05-07 16:11 | 47.99267 | 10.28457 | 2927 ft | 159 kts | 345° |
| 2026-05-07 16:11 | 47.99869 | 10.27993 | 2720 ft | 129 kts | 322° |
| 2026-05-07 16:11 | 48.00043 | 10.27033 | 2384 ft | 94 kts | 251° |
| 2026-05-07 16:11 | 47.99735 | 10.26151 | 2214 ft | 101 kts | 247° |
| 2026-05-07 16:12 | 47.99379 | 10.25216 | 2088 ft | 107 kts | 245° |
| 2026-05-07 16:12 | 47.99068 | 10.24377 | 2062 ft | 68 kts | 242° |
| 2026-05-07 16:12 | 47.98699 | 10.23537 | 2334 ft | 121 kts | 250° |
| 2026-05-07 16:12 | 47.98304 | 10.22397 | 2911 ft | 132 kts | 246° |
| 2026-05-07 16:13 | 47.97785 | 10.21160 | 2933 ft | 150 kts | 222° |
| 2026-05-07 16:13 | 47.96775 | 10.21170 | 2951 ft | 163 kts | 155° |
| 2026-05-07 16:13 | 47.96176 | 10.22526 | 2922 ft | 170 kts | 88° |
| 2026-05-07 16:13 | 47.96527 | 10.24189 | 2883 ft | 171 kts | 61° |
| 2026-05-07 16:14 | 47.97073 | 10.25710 | 2750 ft | 151 kts | 57° |
| 2026-05-07 16:14 | 47.97555 | 10.26912 | 2883 ft | 120 kts | 45° |
| 2026-05-07 16:14 | 47.98089 | 10.27914 | 2942 ft | 139 kts | 49° |
| 2026-05-07 16:14 | 47.98826 | 10.28674 | 3254 ft | 131 kts | 356° |
| 2026-05-07 16:15 | 47.99768 | 10.28177 | 2936 ft | 159 kts | 333° |
| 2026-05-07 16:15 | 47.99989 | 10.26825 | 2589 ft | 166 kts | 245° |
| 2026-05-07 16:15 | 47.99325 | 10.25063 | 2104 ft | 192 kts | 241° |
| 2026-05-07 16:15 | 47.98668 | 10.23438 | 2137 ft | 178 kts | 243° |
| 2026-05-07 16:16 | 47.98061 | 10.21950 | 2660 ft | 163 kts | 237° |
| 2026-05-07 16:16 | 47.97607 | 10.20939 | 3264 ft | 157 kts | 250° |
| 2026-05-07 16:16 | 47.96675 | 10.20532 | 2934 ft | 212 kts | 128° |
| 2026-05-07 16:16 | 47.96538 | 10.22635 | 2914 ft | 224 kts | 66° |
| 2026-05-07 16:17 | 47.97258 | 10.24773 | 2778 ft | 229 kts | 60° |
| 2026-05-07 16:17 | 47.97952 | 10.26853 | 3369 ft | 200 kts | 65° |
| 2026-05-07 16:17 | 47.98741 | 10.28513 | 3632 ft | 185 kts | 12° |
| 2026-05-07 16:17 | 47.99761 | 10.28526 | 3438 ft | 121 kts | 18° |
| 2026-05-07 16:18 | 48.00135 | 10.29452 | 3136 ft | 112 kts | 98° |
| 2026-05-07 16:18 | 47.99727 | 10.30339 | 3007 ft | 102 kts | 154° |
| 2026-05-07 16:18 | 47.99024 | 10.30464 | 2989 ft | 109 kts | 212° |
| 2026-05-07 16:18 | 47.98663 | 10.29612 | 2941 ft | 97 kts | 278° |
| 2026-05-07 16:19 | 47.99037 | 10.28875 | 2714 ft | 93 kts | 335° |
| 2026-05-07 16:19 | 47.99630 | 10.28868 | 2630 ft | 90 kts | 26° |
| 2026-05-07 16:19 | 48.00046 | 10.29598 | 2620 ft | 99 kts | 68° |
| 2026-05-07 16:19 | 48.00077 | 10.30636 | 2629 ft | 102 kts | 102° |
| 2026-05-07 16:20 | 47.99745 | 10.31562 | 2818 ft | 107 kts | 134° |
| 2026-05-07 16:20 | 47.99098 | 10.32037 | 2919 ft | 105 kts | 185° |
| 2026-05-07 16:20 | 47.98490 | 10.31524 | 2909 ft | 101 kts | 248° |
| 2026-05-07 16:20 | 47.98517 | 10.30589 | 2759 ft | 101 kts | 301° |
| 2026-05-07 16:21 | 47.99172 | 10.30230 | 2723 ft | 112 kts | 354° |
| 2026-05-07 16:21 | 47.99964 | 10.30071 | 2733 ft | 115 kts | 346° |
| 2026-05-07 16:21 | 48.00633 | 10.29476 | 2753 ft | 114 kts | 300° |
| 2026-05-07 16:21 | 48.00561 | 10.28312 | 2582 ft | 119 kts | 252° |
| 2026-05-07 16:22 | 48.00196 | 10.27292 | 2301 ft | 105 kts | 242° |
| 2026-05-07 16:22 | 47.99780 | 10.26104 | 2186 ft | 155 kts | 254° |
| 2026-05-07 16:22 | 47.99120 | 10.24520 | 2112 ft | 198 kts | 240° |
| 2026-05-07 16:22 | 47.98378 | 10.22681 | 2219 ft | 203 kts | 231° |
| 2026-05-07 16:23 | 47.97360 | 10.22395 | 2845 ft | 191 kts | 147° |
| 2026-05-07 16:23 | 47.97114 | 10.23970 | 2735 ft | 167 kts | 25° |
| 2026-05-07 16:23 | 47.97629 | 10.25365 | 2679 ft | 144 kts | 40° |
| 2026-05-07 16:23 | 47.97913 | 10.26786 | 2743 ft | 143 kts | 56° |
| 2026-05-07 16:24 | 47.98096 | 10.28207 | 2882 ft | 139 kts | 34° |
| 2026-05-07 16:24 | 47.98805 | 10.28841 | 3052 ft | 136 kts | 339° |
| 2026-05-07 16:24 | 47.99893 | 10.28786 | 3019 ft | 168 kts | 20° |
| 2026-05-07 16:24 | 48.00474 | 10.27893 | 3146 ft | 155 kts | 254° |
| 2026-05-07 16:25 | 47.99859 | 10.26491 | 2444 ft | 141 kts | 207° |
| 2026-05-07 16:25 | 47.99482 | 10.25475 | 2076 ft | 92 kts | 246° |
| 2026-05-07 16:25 | 47.99233 | 10.24828 | 2061 ft | 54 kts | 236° |
| 2026-05-07 16:25 | 47.99080 | 10.24450 | 2063 ft | 36 kts | 255° |
| 2026-05-07 16:26 | 47.98946 | 10.24103 | 2065 ft | 44 kts | 272° |
| 2026-05-07 16:26 | 47.98817 | 10.23824 | 2071 ft | 22 kts | 246° |
| 2026-05-07 16:26 | 47.98768 | 10.23829 | 2071 ft | 1 kts | 153° |
| 2026-05-07 16:26 | 47.98749 | 10.23844 | 2070 ft | 6 kts | 147° |
| 2026-05-07 16:27 | 47.98744 | 10.23850 | 2070 ft | 1 kts | 85° |
| 2026-05-07 16:27 | 47.98747 | 10.23844 | 2070 ft | 8 kts | 184° |
| 2026-05-07 16:27 | 47.98739 | 10.23853 | 2070 ft | 0 kts | 229° |
| 2026-05-07 16:28 | 47.98721 | 10.23804 | 2070 ft | 15 kts | 240° |
| 2026-05-07 16:28 | 47.98644 | 10.23720 | 2072 ft | 15 kts | 131° |
| 2026-05-07 16:28 | 47.98664 | 10.23761 | 2071 ft | 0 kts | 331° |